Time;durP1;ratioP1;P1;durP2;ratioP2;P2;SDS_P1;SDS_P2;PMS_P1;PMS_P2;Temp;Humidity;BMP_temperature;BMP_pressure;BME280_temperature;BME280_humidity;BME280_pressure;Samples;Min_cycle;Max_cycle;Signal;HPM_P1;HPM_P2
2023/06/06 00:00:22;;;;;;;1.85;1.13;;;18.70;78.50;;;;;;4959005;28;20299;-66
2023/06/06 00:02:50;;;;;;;1.05;1.00;;;18.70;78.50;;;;;;4962201;28;20256;-65
2023/06/06 00:05:20;;;;;;;1.00;0.90;;;18.60;78.60;;;;;;4975908;28;20287;-66
2023/06/06 00:07:48;;;;;;;1.55;1.08;;;18.50;78.60;;;;;;4989056;28;20630;-66
2023/06/06 00:10:16;;;;;;;1.17;1.08;;;18.50;78.90;;;;;;4980237;28;20207;-66
2023/06/06 00:12:46;;;;;;;1.00;1.00;;;18.60;79.10;;;;;;4973559;28;20363;-67
2023/06/06 00:15:16;;;;;;;1.20;1.15;;;18.50;79.10;;;;;;4990387;28;20198;-67
2023/06/06 00:17:44;;;;;;;1.33;1.23;;;18.50;79.30;;;;;;4985868;28;20292;-68
2023/06/06 00:20:13;;;;;;;1.10;1.00;;;18.50;79.50;;;;;;4977135;28;20298;-67
2023/06/06 00:22:40;;;;;;;1.20;1.10;;;18.40;79.50;;;;;;4984287;28;20200;-67
2023/06/06 00:25:08;;;;;;;1.23;1.10;;;18.40;79.80;;;;;;4983694;28;20203;-66
2023/06/06 00:27:38;;;;;;;0.80;0.80;;;18.40;79.90;;;;;;4975363;28;20251;-67
2023/06/06 00:30:08;;;;;;;0.90;0.90;;;18.40;80.00;;;;;;4971045;28;20208;-67
2023/06/06 00:32:36;;;;;;;1.10;1.03;;;18.40;80.10;;;;;;4984516;28;20303;-67
2023/06/06 00:35:03;;;;;;;1.20;1.10;;;18.40;80.10;;;;;;4973497;28;20738;-67
2023/06/06 00:37:30;;;;;;;1.20;1.10;;;18.40;80.20;;;;;;4977911;28;20200;-67
2023/06/06 00:39:58;;;;;;;2.03;1.17;;;18.40;80.20;;;;;;4989711;28;20200;-66
2023/06/06 00:42:25;;;;;;;1.30;1.15;;;18.40;80.30;;;;;;4989342;28;20196;-67
2023/06/06 00:44:52;;;;;;;1.20;1.20;;;18.30;80.30;;;;;;4974181;28;20278;-67
2023/06/06 00:47:20;;;;;;;1.20;1.10;;;18.40;80.50;;;;;;4971139;28;20282;-67
2023/06/06 00:49:50;;;;;;;1.30;1.15;;;18.40;80.40;;;;;;4988596;28;20200;-67
2023/06/06 00:52:18;;;;;;;2.63;1.20;;;18.30;80.40;;;;;;4971853;28;20303;-67
2023/06/06 00:54:45;;;;;;;1.98;0.88;;;18.30;80.50;;;;;;4990002;28;20200;-67
2023/06/06 00:57:13;;;;;;;0.98;0.98;;;18.30;80.50;;;;;;4974367;28;20211;-67
2023/06/06 00:59:42;;;;;;;1.00;1.00;;;18.30;80.60;;;;;;4984155;28;20261;-67
2023/06/06 01:02:17;;;;;;;2.58;1.33;;;18.20;80.60;;;;;;4982377;28;20250;-67
2023/06/06 01:04:46;;;;;;;1.98;1.40;;;18.20;80.60;;;;;;4966271;28;20222;-67
2023/06/06 01:07:17;;;;;;;1.07;1.07;;;18.20;80.80;;;;;;4981410;28;20196;-66
2023/06/06 01:09:48;;;;;;;1.40;1.30;;;18.10;80.70;;;;;;4971022;28;20283;-66
2023/06/06 01:12:24;;;;;;;1.70;1.33;;;18.10;80.90;;;;;;4993812;28;20645;-66
2023/06/06 01:14:59;;;;;;;1.52;1.42;;;18.00;80.90;;;;;;4976169;28;20238;-68
2023/06/06 01:17:28;;;;;;;1.33;1.30;;;18.00;81.10;;;;;;4989577;28;20570;-67
2023/06/06 01:19:59;;;;;;;1.75;1.40;;;18.00;81.20;;;;;;4991567;28;20287;-67
2023/06/06 01:22:29;;;;;;;3.17;1.27;;;18.00;81.20;;;;;;4993043;28;20238;-67
2023/06/06 01:24:58;;;;;;;1.52;1.30;;;18.00;81.30;;;;;;4992075;28;20222;-67
2023/06/06 01:27:27;;;;;;;1.30;1.20;;;17.90;81.40;;;;;;4972065;28;20237;-67
2023/06/06 01:29:54;;;;;;;1.17;1.05;;;17.90;81.50;;;;;;4984030;28;20587;-68
2023/06/06 01:32:26;;;;;;;0.70;0.70;;;17.90;81.60;;;;;;4963131;28;20216;-66
2023/06/06 01:35:00;;;;;;;1.10;1.10;;;17.90;81.70;;;;;;4986118;28;20684;-67
2023/06/06 01:37:44;;;;;;;1.33;1.23;;;17.90;81.70;;;;;;4993797;28;20202;-66
2023/06/06 01:40:14;;;;;;;1.27;1.05;;;17.90;81.80;;;;;;4986046;28;20199;-66
2023/06/06 01:42:45;;;;;;;1.20;1.10;;;17.90;81.70;;;;;;4993654;28;20307;-66
2023/06/06 01:45:18;;;;;;;1.17;1.10;;;17.80;81.80;;;;;;4976538;28;20369;-66
2023/06/06 01:47:49;;;;;;;1.50;1.40;;;17.80;81.90;;;;;;5004037;28;20271;-66
2023/06/06 01:50:16;;;;;;;1.00;1.00;;;18.40;82.70;;;;;;4996297;28;20735;-65
2023/06/06 01:52:45;;;;;;;1.87;1.20;;;17.80;82.10;;;;;;4993525;28;20609;-66
2023/06/06 01:55:14;;;;;;;1.35;1.27;;;17.70;82.20;;;;;;4995268;28;20808;-65
2023/06/06 01:57:41;;;;;;;1.13;0.95;;;17.70;82.30;;;;;;4977599;28;20203;-66
2023/06/06 02:00:09;;;;;;;1.63;1.40;;;17.70;82.40;;;;;;4976997;28;20268;-66
2023/06/06 02:02:45;;;;;;;1.60;1.50;;;17.60;82.50;;;;;;4991238;28;20235;-66
2023/06/06 02:05:14;;;;;;;1.05;1.05;;;17.60;82.70;;;;;;4970948;28;20693;-66
2023/06/06 02:07:44;;;;;;;1.33;1.20;;;17.60;82.80;;;;;;4959528;28;20219;-65
2023/06/06 02:10:13;;;;;;;1.03;1.00;;;17.60;83.10;;;;;;4972241;28;20207;-66
2023/06/06 02:12:40;;;;;;;2.05;1.30;;;17.60;83.00;;;;;;4993391;28;20683;-66
2023/06/06 02:15:11;;;;;;;1.27;1.17;;;17.60;83.10;;;;;;4990927;28;20207;-67
2023/06/06 02:17:38;;;;;;;1.40;1.27;;;17.60;83.20;;;;;;4992824;28;20364;-66
2023/06/06 02:20:10;;;;;;;1.10;1.10;;;17.60;83.40;;;;;;4989280;28;20674;-67
2023/06/06 02:22:38;;;;;;;1.25;1.10;;;17.60;83.90;;;;;;4991795;28;20636;-66
2023/06/06 02:25:08;;;;;;;1.13;1.10;;;17.60;83.40;;;;;;4986387;28;20765;-66
2023/06/06 02:27:36;;;;;;;1.88;1.33;;;17.50;83.30;;;;;;4981372;28;20213;-66
2023/06/06 02:30:08;;;;;;;1.38;1.27;;;17.50;83.40;;;;;;4975077;28;20205;-65
2023/06/06 02:32:35;;;;;;;1.65;1.50;;;17.50;83.50;;;;;;4956131;28;20226;-65
2023/06/06 02:35:04;;;;;;;1.65;1.20;;;17.50;83.60;;;;;;4957217;28;20211;-66
2023/06/06 02:37:32;;;;;;;1.20;1.15;;;17.50;83.60;;;;;;4992548;28;20217;-65
2023/06/06 02:40:05;;;;;;;1.20;1.13;;;17.50;83.70;;;;;;4958229;28;20664;-65
2023/06/06 02:42:33;;;;;;;1.90;1.30;;;17.50;83.80;;;;;;4958394;28;20212;-67
2023/06/06 02:45:01;;;;;;;1.33;1.30;;;17.50;83.80;;;;;;4958274;28;20583;-66
2023/06/06 02:47:28;;;;;;;1.33;1.23;;;17.60;83.90;;;;;;4974949;28;20212;-66
2023/06/06 02:49:55;;;;;;;1.40;1.30;;;17.50;83.90;;;;;;4975208;28;20999;-66
2023/06/06 02:52:22;;;;;;;1.30;1.10;;;17.50;84.20;;;;;;4974165;28;20205;-66
2023/06/06 02:54:50;;;;;;;1.42;1.33;;;17.50;84.10;;;;;;4956390;28;20724;-66
2023/06/06 02:57:17;;;;;;;1.63;1.27;;;17.50;84.40;;;;;;4960293;28;20213;-66
2023/06/06 02:59:44;;;;;;;2.40;1.50;;;17.50;84.30;;;;;;4966188;28;20217;-67
2023/06/06 03:02:12;;;;;;;1.13;1.13;;;17.40;84.40;;;;;;4976602;28;21895;-66
2023/06/06 03:04:40;;;;;;;1.77;1.50;;;17.40;84.60;;;;;;4988966;28;20214;-67
2023/06/06 03:07:10;;;;;;;1.25;1.20;;;17.30;84.70;;;;;;4980709;28;20562;-66
2023/06/06 03:09:37;;;;;;;1.50;1.40;;;17.40;85.00;;;;;;4989216;28;20224;-66
2023/06/06 03:12:07;;;;;;;1.88;1.30;;;17.40;85.00;;;;;;4973742;28;20694;-66
2023/06/06 03:14:34;;;;;;;3.13;1.50;;;17.30;84.90;;;;;;4970387;28;20214;-67
2023/06/06 03:17:02;;;;;;;1.50;1.33;;;17.30;85.00;;;;;;4981689;28;20237;-66
2023/06/06 03:19:33;;;;;;;2.83;1.50;;;17.40;85.30;;;;;;4983590;28;20605;-67
2023/06/06 03:22:01;;;;;;;1.30;1.20;;;17.40;85.10;;;;;;4979430;28;20636;-67
2023/06/06 03:24:33;;;;;;;1.42;1.20;;;17.40;85.90;;;;;;4980670;28;20263;-67
2023/06/06 03:27:02;;;;;;;1.45;1.20;;;17.40;85.20;;;;;;4968438;28;20676;-67
2023/06/06 03:29:32;;;;;;;2.72;1.80;;;17.40;85.30;;;;;;4987354;28;20693;-66
2023/06/06 03:32:02;;;;;;;1.73;1.63;;;17.40;85.30;;;;;;4958799;28;20216;-67
2023/06/06 03:34:30;;;;;;;1.70;1.60;;;17.40;85.30;;;;;;4975992;28;20210;-66
2023/06/06 03:37:00;;;;;;;1.40;1.30;;;17.40;85.40;;;;;;4972976;28;20281;-65
2023/06/06 03:39:28;;;;;;;1.98;1.77;;;17.40;85.50;;;;;;4965571;28;20692;-67
2023/06/06 03:41:56;;;;;;;2.00;1.70;;;17.40;85.60;;;;;;4955908;28;20205;-67
2023/06/06 03:44:24;;;;;;;2.87;1.70;;;17.40;85.60;;;;;;4962465;28;20256;-67
2023/06/06 03:46:51;;;;;;;2.57;1.83;;;17.40;85.60;;;;;;4983313;28;20263;-66
2023/06/06 03:49:18;;;;;;;1.50;1.40;;;17.40;85.70;;;;;;4972877;28;20213;-65
2023/06/06 03:51:46;;;;;;;2.97;1.70;;;17.40;85.70;;;;;;4979160;28;20204;-67
2023/06/06 03:54:15;;;;;;;2.63;1.47;;;17.50;85.70;;;;;;4960952;28;20213;-66
2023/06/06 03:56:42;;;;;;;2.83;1.60;;;17.60;85.80;;;;;;4984294;28;20557;-67
2023/06/06 03:59:11;;;;;;;1.43;1.33;;;17.60;85.90;;;;;;4972980;28;20205;-67
2023/06/06 04:01:40;;;;;;;2.37;1.77;;;17.60;85.80;;;;;;4956274;28;20649;-67
2023/06/06 04:04:13;;;;;;;2.17;1.63;;;17.50;85.80;;;;;;4969745;28;20597;-67
2023/06/06 04:06:41;;;;;;;2.07;1.70;;;17.60;85.80;;;;;;4974106;28;20209;-67
2023/06/06 04:09:10;;;;;;;2.33;1.60;;;17.60;85.80;;;;;;4961369;28;20195;-67
2023/06/06 04:11:40;;;;;;;1.65;1.55;;;17.70;85.90;;;;;;4968916;28;20225;-67
2023/06/06 04:14:09;;;;;;;2.33;1.55;;;17.70;85.80;;;;;;4969152;28;20284;-67
2023/06/06 04:16:38;;;;;;;2.80;1.90;;;17.70;85.60;;;;;;4985125;28;20229;-67
2023/06/06 04:19:06;;;;;;;2.00;1.80;;;17.80;85.60;;;;;;4976954;28;20214;-67
2023/06/06 04:21:34;;;;;;;7.73;2.63;;;17.80;85.40;;;;;;4987570;28;20198;-66
2023/06/06 04:24:01;;;;;;;2.73;1.90;;;17.90;85.40;;;;;;4990002;28;20217;-67
2023/06/06 04:26:31;;;;;;;3.90;2.40;;;17.90;85.10;;;;;;4978753;28;20206;-67
2023/06/06 04:29:00;;;;;;;4.18;2.53;;;17.90;84.80;;;;;;4964887;28;20717;-67
2023/06/06 04:31:29;;;;;;;3.77;2.60;;;17.90;84.60;;;;;;4983145;28;20205;-66
2023/06/06 04:33:56;;;;;;;2.72;2.13;;;17.90;84.60;;;;;;4972473;28;20679;-66
2023/06/06 04:36:24;;;;;;;3.20;2.80;;;17.90;84.10;;;;;;4972421;28;20199;-66
2023/06/06 04:39:00;;;;;;;3.13;2.70;;;18.00;84.00;;;;;;4990451;28;20311;-68
2023/06/06 04:41:31;;;;;;;4.15;2.63;;;18.00;83.90;;;;;;4970586;28;20218;-67
2023/06/06 04:44:03;;;;;;;5.03;2.87;;;18.00;83.70;;;;;;4969855;28;20317;-67
2023/06/06 04:46:33;;;;;;;5.10;3.10;;;18.00;83.70;;;;;;4960469;28;20208;-67
2023/06/06 04:49:08;;;;;;;4.63;3.03;;;18.00;83.80;;;;;;4977473;28;20210;-67
2023/06/06 04:51:37;;;;;;;4.32;3.13;;;18.00;83.70;;;;;;4994422;28;20659;-66
2023/06/06 04:54:07;;;;;;;5.63;2.77;;;18.10;83.80;;;;;;4980794;28;20693;-66
2023/06/06 04:56:35;;;;;;;4.20;2.80;;;18.10;83.90;;;;;;4994969;28;20282;-67
2023/06/06 04:59:06;;;;;;;5.85;2.88;;;18.10;83.90;;;;;;4991173;28;20198;-66
2023/06/06 05:01:34;;;;;;;5.30;3.17;;;18.10;83.90;;;;;;4974340;28;20294;-65
2023/06/06 05:04:01;;;;;;;2.92;2.33;;;18.20;84.10;;;;;;4986428;28;20242;-66
2023/06/06 05:06:31;;;;;;;5.15;2.88;;;18.20;84.10;;;;;;4975527;28;20210;-66
2023/06/06 05:08:59;;;;;;;3.92;2.13;;;18.30;84.20;;;;;;4987162;28;20231;-67
2023/06/06 05:11:27;;;;;;;1.88;1.70;;;18.20;84.10;;;;;;4989162;28;20196;-67
2023/06/06 05:13:54;;;;;;;1.98;1.77;;;18.30;84.20;;;;;;4994627;28;20198;-67
2023/06/06 05:16:23;;;;;;;5.28;2.08;;;18.40;84.10;;;;;;4970899;28;20298;-67
2023/06/06 05:18:50;;;;;;;2.50;1.80;;;18.40;84.00;;;;;;4987904;28;20216;-67
2023/06/06 05:21:20;;;;;;;3.00;1.88;;;18.50;84.00;;;;;;4985374;28;20199;-66
2023/06/06 05:23:47;;;;;;;2.20;2.00;;;18.50;84.00;;;;;;4992659;28;20223;-66
2023/06/06 05:26:14;;;;;;;1.95;1.73;;;18.50;83.80;;;;;;4986564;28;20641;-66
2023/06/06 05:28:41;;;;;;;2.58;1.77;;;18.60;83.70;;;;;;4985481;28;20711;-66
2023/06/06 05:31:08;;;;;;;2.70;2.00;;;18.60;83.60;;;;;;4993979;28;20203;-66
2023/06/06 05:33:40;;;;;;;2.80;2.15;;;18.70;83.40;;;;;;4992069;28;20239;-66
2023/06/06 05:36:08;;;;;;;2.10;1.90;;;18.70;83.20;;;;;;4992057;28;20205;-66
2023/06/06 05:38:35;;;;;;;3.35;1.90;;;18.70;83.00;;;;;;4981390;28;20298;-66
2023/06/06 05:41:02;;;;;;;2.10;1.90;;;18.80;82.90;;;;;;4990056;28;20226;-67
2023/06/06 05:43:31;;;;;;;2.38;2.17;;;18.80;82.80;;;;;;4994561;28;20199;-67
2023/06/06 05:45:58;;;;;;;2.97;2.08;;;18.80;82.70;;;;;;4993975;28;20226;-66
2023/06/06 05:48:25;;;;;;;4.47;2.50;;;18.80;82.50;;;;;;4994051;28;20326;-66
2023/06/06 05:50:53;;;;;;;6.43;2.13;;;18.90;82.40;;;;;;4969800;28;20299;-66
2023/06/06 05:53:21;;;;;;;2.20;1.70;;;18.90;82.20;;;;;;4990535;28;20192;-66
2023/06/06 05:55:48;;;;;;;1.80;1.70;;;18.90;82.10;;;;;;4994540;28;20195;-67
2023/06/06 05:58:15;;;;;;;2.03;1.83;;;19.00;82.10;;;;;;4990577;28;20199;-67
2023/06/06 06:00:43;;;;;;;3.22;2.40;;;19.10;82.00;;;;;;4984471;28;20211;-68
2023/06/06 06:03:11;;;;;;;2.55;2.00;;;19.10;82.40;;;;;;4983964;28;20283;-66
2023/06/06 06:05:38;;;;;;;2.65;1.98;;;19.20;82.10;;;;;;4990122;28;20299;-66
2023/06/06 06:08:17;;;;;;;4.53;2.40;;;19.20;82.20;;;;;;4991218;28;20204;-66
2023/06/06 06:10:44;;;;;;;3.40;2.15;;;19.30;82.30;;;;;;4984330;28;20196;-67
2023/06/06 06:13:12;;;;;;;6.95;2.75;;;19.30;82.20;;;;;;4987159;28;20212;-67
2023/06/06 06:15:39;;;;;;;3.83;2.33;;;19.40;82.30;;;;;;4978135;28;20197;-67
2023/06/06 06:18:06;;;;;;;2.42;2.00;;;19.40;82.00;;;;;;4980725;28;20735;-67
2023/06/06 06:20:33;;;;;;;4.30;2.00;;;19.50;82.00;;;;;;4987935;28;20276;-67
2023/06/06 06:23:01;;;;;;;4.50;1.70;;;19.50;81.60;;;;;;4991276;28;20266;-66
2023/06/06 06:25:29;;;;;;;1.80;1.70;;;19.60;81.40;;;;;;4987060;28;20697;-66
2023/06/06 06:27:57;;;;;;;4.38;2.08;;;19.60;81.10;;;;;;4986905;28;20274;-66
2023/06/06 06:30:24;;;;;;;1.90;1.80;;;19.70;81.50;;;;;;4977850;28;20202;-66
2023/06/06 06:32:51;;;;;;;4.18;1.90;;;19.70;80.50;;;;;;4985608;28;20255;-67
2023/06/06 06:35:24;;;;;;;1.40;1.30;;;19.80;80.50;;;;;;4976739;28;20283;-66
2023/06/06 06:37:51;;;;;;;1.73;1.52;;;19.90;80.30;;;;;;4987979;28;20691;-67
2023/06/06 06:40:20;;;;;;;1.30;1.20;;;19.90;79.70;;;;;;4991138;28;20199;-67
2023/06/06 06:42:49;;;;;;;2.10;1.80;;;19.90;79.20;;;;;;4989492;28;20214;-65
2023/06/06 06:45:28;;;;;;;2.97;2.08;;;20.00;78.40;;;;;;4972200;28;20227;-66
2023/06/06 06:47:55;;;;;;;1.90;1.75;;;20.00;77.80;;;;;;4973485;28;20253;-65
2023/06/06 06:50:22;;;;;;;1.63;1.50;;;20.10;77.80;;;;;;4990407;28;20200;-66
2023/06/06 06:52:49;;;;;;;2.63;1.55;;;20.20;77.80;;;;;;4978064;28;20196;-66
2023/06/06 06:55:17;;;;;;;5.45;1.70;;;20.20;77.50;;;;;;4984931;28;20197;-66
2023/06/06 06:57:44;;;;;;;3.33;2.00;;;20.30;77.30;;;;;;4968498;28;20193;-66
2023/06/06 07:00:18;;;;;;;3.17;2.70;;;20.40;77.00;;;;;;4986912;28;20230;-66
2023/06/06 07:02:46;;;;;;;4.68;2.03;;;20.50;77.20;;;;;;4984565;28;20740;-65
2023/06/06 07:05:15;;;;;;;2.63;2.38;;;20.60;76.80;;;;;;4982849;28;20220;-66
2023/06/06 07:07:46;;;;;;;3.08;2.40;;;20.60;76.60;;;;;;4978604;28;20263;-66
2023/06/06 07:10:15;;;;;;;3.38;2.40;;;20.70;76.20;;;;;;4989977;28;20617;-67
2023/06/06 07:12:42;;;;;;;3.35;1.65;;;20.80;76.00;;;;;;4990712;28;20254;-67
2023/06/06 07:15:11;;;;;;;2.60;2.17;;;20.80;76.00;;;;;;4988926;28;20192;-67
2023/06/06 07:17:42;;;;;;;3.05;2.15;;;20.90;75.60;;;;;;4986104;28;20283;-67
2023/06/06 07:20:11;;;;;;;1.70;1.60;;;20.90;75.10;;;;;;4984102;28;20208;-67
2023/06/06 07:22:40;;;;;;;1.73;1.63;;;21.00;75.20;;;;;;4972122;28;20267;-66
2023/06/06 07:25:08;;;;;;;2.40;1.75;;;21.10;75.10;;;;;;4991029;28;20298;-65
2023/06/06 07:27:37;;;;;;;3.40;1.85;;;21.20;75.10;;;;;;4985556;28;20288;-66
2023/06/06 07:30:06;;;;;;;2.83;1.70;;;21.20;74.90;;;;;;4985172;28;20204;-67
2023/06/06 07:32:34;;;;;;;1.83;1.73;;;21.30;74.80;;;;;;4972051;28;20199;-67
2023/06/06 07:35:03;;;;;;;1.70;1.60;;;21.40;75.40;;;;;;4985955;28;20199;-67
2023/06/06 07:37:31;;;;;;;2.08;1.90;;;21.50;74.70;;;;;;4971047;28;20211;-67
2023/06/06 07:39:58;;;;;;;2.65;1.52;;;21.60;74.70;;;;;;4983601;28;20258;-66
2023/06/06 07:42:25;;;;;;;3.30;2.20;;;21.60;74.60;;;;;;4984412;28;20547;-67
2023/06/06 07:44:55;;;;;;;1.90;1.70;;;21.70;74.40;;;;;;4987078;28;20203;-66
2023/06/06 07:47:23;;;;;;;1.88;1.55;;;21.80;73.80;;;;;;4980183;28;20224;-65
2023/06/06 07:49:50;;;;;;;2.35;2.00;;;21.80;73.70;;;;;;4980896;28;20192;-66
2023/06/06 07:52:19;;;;;;;1.42;1.33;;;21.90;74.40;;;;;;4977508;28;20282;-66
2023/06/06 07:54:46;;;;;;;2.08;1.75;;;22.00;73.70;;;;;;4989512;28;20200;-66
2023/06/06 07:57:15;;;;;;;1.88;1.17;;;22.00;73.00;;;;;;4981620;28;20199;-66
2023/06/06 07:59:43;;;;;;;1.23;1.20;;;22.10;73.10;;;;;;4985098;28;20293;-66
2023/06/06 08:02:14;;;;;;;1.75;1.38;;;22.20;73.30;;;;;;4979561;28;20315;-66
2023/06/06 08:04:45;;;;;;;2.25;1.67;;;22.20;73.20;;;;;;4977589;28;20196;-66
2023/06/06 08:07:14;;;;;;;2.45;1.80;;;22.30;72.80;;;;;;4982014;28;20220;-66
2023/06/06 08:09:43;;;;;;;6.72;1.88;;;22.40;72.60;;;;;;4988128;28;20211;-66
2023/06/06 08:12:11;;;;;;;1.85;1.73;;;22.50;72.20;;;;;;4981192;28;20690;-66
2023/06/06 08:14:38;;;;;;;2.05;1.85;;;22.60;72.10;;;;;;4987868;28;20215;-66
2023/06/06 08:17:06;;;;;;;1.60;1.50;;;22.60;71.90;;;;;;4985724;28;20234;-66
2023/06/06 08:19:33;;;;;;;1.83;1.70;;;22.70;71.20;;;;;;4970833;28;20286;-66
2023/06/06 08:22:02;;;;;;;2.22;1.95;;;22.80;70.40;;;;;;4970367;28;20595;-66
2023/06/06 08:24:29;;;;;;;4.38;2.45;;;22.90;70.50;;;;;;4970471;28;20742;-66
2023/06/06 08:26:58;;;;;;;2.67;2.20;;;22.90;70.40;;;;;;4971319;28;20227;-66
2023/06/06 08:29:26;;;;;;;3.03;1.90;;;23.00;70.60;;;;;;4988293;28;20206;-66
2023/06/06 08:31:53;;;;;;;3.30;2.60;;;23.10;70.90;;;;;;4988998;28;20598;-67
2023/06/06 08:34:23;;;;;;;3.75;1.95;;;23.20;71.10;;;;;;4978150;28;20197;-66
2023/06/06 08:36:51;;;;;;;1.90;1.80;;;23.30;71.60;;;;;;4988572;28;20200;-67
2023/06/06 08:39:21;;;;;;;3.65;2.22;;;23.30;70.50;;;;;;4988480;28;20206;-67
2023/06/06 08:41:51;;;;;;;2.15;1.92;;;23.40;69.90;;;;;;4971427;28;20606;-67
2023/06/06 08:44:21;;;;;;;3.05;2.70;;;23.50;69.70;;;;;;4988861;28;20207;-66
2023/06/06 08:46:51;;;;;;;2.80;2.30;;;23.60;69.00;;;;;;4988728;28;20208;-65
2023/06/06 08:49:19;;;;;;;2.38;2.17;;;23.70;68.60;;;;;;4985666;28;20565;-66
2023/06/06 08:51:48;;;;;;;4.22;1.63;;;23.70;67.30;;;;;;4988606;28;20195;-65
2023/06/06 08:54:15;;;;;;;1.90;1.63;;;23.80;66.70;;;;;;4985813;28;20616;-65
2023/06/06 08:56:44;;;;;;;2.20;1.83;;;23.80;66.50;;;;;;4989510;28;20214;-67
2023/06/06 08:59:11;;;;;;;2.92;2.03;;;23.90;65.80;;;;;;4969357;28;20196;-66
2023/06/06 09:01:42;;;;;;;2.30;2.08;;;24.00;64.50;;;;;;4985601;28;20204;-66
2023/06/06 09:04:09;;;;;;;3.28;2.53;;;24.10;63.50;;;;;;4986287;28;20228;-66
2023/06/06 09:06:43;;;;;;;2.47;1.92;;;24.20;62.80;;;;;;4984852;28;20216;-66
2023/06/06 09:09:11;;;;;;;2.90;2.20;;;24.30;62.10;;;;;;4977518;28;20196;-66
2023/06/06 09:11:38;;;;;;;2.00;1.90;;;24.30;62.20;;;;;;4959271;28;20208;-67
2023/06/06 09:14:06;;;;;;;2.20;2.00;;;24.50;61.90;;;;;;4982672;28;20271;-66
2023/06/06 09:16:33;;;;;;;1.73;1.60;;;24.50;61.50;;;;;;4980965;28;20199;-66
2023/06/06 09:19:05;;;;;;;3.33;2.13;;;24.50;61.40;;;;;;4987788;28;20196;-66
2023/06/06 09:21:33;;;;;;;2.33;2.13;;;24.60;60.40;;;;;;4987415;28;20254;-66
2023/06/06 09:24:00;;;;;;;1.92;1.48;;;24.70;60.10;;;;;;4987825;28;20287;-66
2023/06/06 09:26:30;;;;;;;2.25;1.92;;;24.70;59.70;;;;;;4989768;28;20208;-66
2023/06/06 09:29:07;;;;;;;1.98;1.83;;;24.80;59.20;;;;;;4977774;28;20599;-66
2023/06/06 09:31:37;;;;;;;2.60;1.88;;;24.80;59.00;;;;;;4979125;28;20642;-66
2023/06/06 09:34:07;;;;;;;1.80;1.70;;;24.90;59.20;;;;;;4974271;28;20952;-66
2023/06/06 09:36:34;;;;;;;1.60;1.50;;;25.00;58.30;;;;;;4988903;28;20199;-66
2023/06/06 09:39:06;;;;;;;2.50;1.83;;;25.00;58.30;;;;;;4978015;28;20259;-66
2023/06/06 09:41:40;;;;;;;2.05;1.85;;;25.00;57.50;;;;;;4991143;28;20204;-66
2023/06/06 09:44:18;;;;;;;6.13;2.03;;;25.10;57.40;;;;;;4993823;28;20250;-67
2023/06/06 09:46:51;;;;;;;2.15;1.95;;;25.20;57.20;;;;;;4975468;28;20683;-66
2023/06/06 09:49:20;;;;;;;2.97;2.00;;;25.20;57.10;;;;;;4993019;28;20287;-66
2023/06/06 09:51:47;;;;;;;1.77;1.67;;;25.30;57.00;;;;;;4989948;28;20604;-67
2023/06/06 09:54:17;;;;;;;5.32;1.83;;;25.40;56.00;;;;;;4992064;28;20203;-66
2023/06/06 09:56:49;;;;;;;2.35;1.90;;;25.40;56.10;;;;;;4992317;28;20275;-66
2023/06/06 09:59:17;;;;;;;3.25;1.98;;;25.40;55.20;;;;;;4984216;28;20255;-66
2023/06/06 10:01:45;;;;;;;2.10;1.90;;;25.50;55.40;;;;;;4987922;28;20296;-66
2023/06/06 10:04:13;;;;;;;2.53;1.95;;;25.60;55.30;;;;;;4988940;28;20240;-66
2023/06/06 10:06:46;;;;;;;2.55;1.80;;;25.60;54.70;;;;;;4987240;28;20216;-66
2023/06/06 10:09:15;;;;;;;1.60;1.50;;;25.70;55.20;;;;;;4991977;28;20208;-66
2023/06/06 10:11:43;;;;;;;2.50;1.60;;;25.70;55.30;;;;;;4973178;28;20572;-67
2023/06/06 10:14:10;;;;;;;2.03;1.80;;;25.80;55.30;;;;;;4989497;28;20263;-66
2023/06/06 10:16:38;;;;;;;2.38;1.95;;;25.80;53.20;;;;;;4989369;28;20250;-67
2023/06/06 10:19:09;;;;;;;1.70;1.60;;;25.80;52.80;;;;;;4989600;28;20211;-66
2023/06/06 10:21:38;;;;;;;2.22;1.75;;;25.90;52.90;;;;;;4990033;28;20206;-67
2023/06/06 10:24:08;;;;;;;2.50;2.00;;;25.90;52.60;;;;;;4980485;28;20204;-67
2023/06/06 10:26:43;;;;;;;1.92;1.75;;;26.00;52.00;;;;;;4974756;28;20584;-66
2023/06/06 10:29:15;;;;;;;2.15;2.05;;;26.10;52.50;;;;;;4991398;28;20227;-67
2023/06/06 10:31:53;;;;;;;2.15;1.98;;;26.20;52.10;;;;;;4984195;28;20220;-67
2023/06/06 10:34:25;;;;;;;1.83;1.73;;;26.30;51.80;;;;;;4990249;28;20869;-65
2023/06/06 10:36:54;;;;;;;1.73;1.63;;;26.30;50.40;;;;;;4991593;28;20231;-66
2023/06/06 10:39:25;;;;;;;1.95;1.77;;;26.40;49.40;;;;;;4986707;28;20285;-66
2023/06/06 10:41:54;;;;;;;3.85;2.33;;;26.40;48.60;;;;;;4989642;28;20223;-66
2023/06/06 10:44:26;;;;;;;2.17;1.80;;;26.40;48.70;;;;;;4989285;28;20216;-65
2023/06/06 10:47:35;;;;;;;2.10;1.90;;;26.40;48.40;;;;;;4986992;28;20211;-66
2023/06/06 10:50:22;;;;;;;2.28;2.10;;;26.50;48.30;;;;;;4977935;28;20238;-68
2023/06/06 10:52:59;;;;;;;2.10;1.90;;;26.50;48.40;;;;;;4973960;28;20188;-67
2023/06/06 10:55:44;;;;;;;1.83;1.70;;;26.40;48.60;;;;;;4990666;28;20600;-67
2023/06/06 10:58:18;;;;;;;1.80;1.70;;;26.30;48.80;;;;;;4988325;28;20192;-66
2023/06/06 11:00:46;;;;;;;1.95;1.77;;;26.30;49.10;;;;;;4977066;28;20639;-67
2023/06/06 11:03:16;;;;;;;1.58;1.45;;;26.10;49.20;;;;;;4962777;28;20245;-66
2023/06/06 11:06:09;;;;;;;4.22;1.85;;;26.00;49.30;;;;;;4971261;28;20271;-67
2023/06/06 11:08:41;;;;;;;1.67;1.58;;;26.10;48.70;;;;;;4964487;28;20251;-67
2023/06/06 11:11:25;;;;;;;2.38;1.80;;;26.20;48.60;;;;;;4971949;28;20745;-67
2023/06/06 11:13:53;;;;;;;1.95;1.77;;;26.30;49.00;;;;;;4960519;28;20197;-67
2023/06/06 11:17:11;;;;;;;2.30;1.60;;;26.40;49.10;;;;;;4968137;28;20662;-67
2023/06/06 11:19:43;;;;;;;1.70;1.60;;;26.50;48.90;;;;;;4963507;28;20220;-66
2023/06/06 11:22:21;;;;;;;2.72;2.53;;;26.60;48.60;;;;;;4969436;28;20197;-67
2023/06/06 11:24:49;;;;;;;1.88;1.75;;;26.70;47.90;;;;;;4966342;28;20249;-67
2023/06/06 11:27:18;;;;;;;1.83;1.73;;;26.70;48.10;;;;;;4959449;28;20327;-67
2023/06/06 11:29:46;;;;;;;1.30;1.30;;;26.70;48.20;;;;;;4967919;28;20250;-67
2023/06/06 11:32:16;;;;;;;1.50;1.40;;;26.70;48.30;;;;;;4961119;28;20201;-65
2023/06/06 11:34:43;;;;;;;2.42;2.22;;;26.70;48.20;;;;;;4967603;28;20634;-68
2023/06/06 11:37:13;;;;;;;4.40;1.70;;;26.60;47.30;;;;;;4970191;28;20204;-66
2023/06/06 11:39:40;;;;;;;3.47;2.08;;;26.50;47.30;;;;;;4969999;28;20216;-66
2023/06/06 11:42:14;;;;;;;7.00;2.40;;;26.50;47.50;;;;;;4970817;28;20284;-66
2023/06/06 11:44:43;;;;;;;2.03;1.80;;;26.40;47.50;;;;;;4968681;28;20735;-66
2023/06/06 11:47:10;;;;;;;2.25;2.10;;;26.30;47.60;;;;;;4970135;28;20216;-67
2023/06/06 11:49:45;;;;;;;1.73;1.63;;;26.30;47.80;;;;;;4960400;28;20231;-67
2023/06/06 11:52:12;;;;;;;2.35;1.58;;;26.20;47.90;;;;;;4957205;28;20225;-67
2023/06/06 11:54:40;;;;;;;1.42;1.25;;;26.20;47.90;;;;;;4970653;28;20814;-67
2023/06/06 11:57:08;;;;;;;2.25;1.60;;;26.20;47.90;;;;;;4969457;28;20215;-68
2023/06/06 11:59:35;;;;;;;1.80;1.70;;;26.10;47.60;;;;;;4966608;28;20709;-67
2023/06/06 12:02:04;;;;;;;1.42;1.38;;;26.10;47.40;;;;;;4966567;28;20221;-67
2023/06/06 12:04:31;;;;;;;2.10;2.00;;;26.20;47.80;;;;;;4981804;28;20192;-68
2023/06/06 12:07:03;;;;;;;1.63;1.52;;;26.20;47.90;;;;;;4982080;28;20260;-67
2023/06/06 12:09:32;;;;;;;5.20;1.90;;;26.30;48.00;;;;;;4983584;28;20196;-67
2023/06/06 12:12:04;;;;;;;2.05;1.95;;;26.50;47.60;;;;;;4970552;28;20565;-67
2023/06/06 12:14:32;;;;;;;6.50;2.55;;;26.50;47.50;;;;;;4983036;28;20188;-66
2023/06/06 12:17:07;;;;;;;1.95;1.80;;;26.60;47.40;;;;;;4986367;28;20275;-67
2023/06/06 12:19:35;;;;;;;2.40;2.17;;;26.70;47.70;;;;;;4987843;28;20206;-67
2023/06/06 12:22:02;;;;;;;2.85;1.95;;;26.80;47.20;;;;;;4986705;28;20597;-66
2023/06/06 12:24:31;;;;;;;1.63;1.52;;;26.90;46.80;;;;;;4964868;28;20281;-68
2023/06/06 12:27:00;;;;;;;1.50;1.40;;;26.90;47.00;;;;;;4984812;28;20715;-67
2023/06/06 12:29:30;;;;;;;1.45;1.35;;;26.80;47.20;;;;;;4968644;28;20214;-67
2023/06/06 12:32:19;;;;;;;1.67;1.58;;;26.80;47.20;;;;;;4981943;28;20208;-66
2023/06/06 12:34:49;;;;;;;2.90;2.15;;;26.70;47.00;;;;;;4982398;28;20204;-68
2023/06/06 12:37:25;;;;;;;3.67;2.10;;;26.60;46.80;;;;;;4989237;28;20847;-67
2023/06/06 12:39:52;;;;;;;1.60;1.50;;;26.70;46.80;;;;;;4987020;28;20270;-66
2023/06/06 12:42:20;;;;;;;1.63;1.52;;;26.60;46.70;;;;;;4989960;28;20195;-66
2023/06/06 12:44:49;;;;;;;2.00;1.40;;;26.60;46.70;;;;;;4986772;28;20202;-66
2023/06/06 12:47:18;;;;;;;2.53;2.33;;;26.50;46.70;;;;;;4989260;28;20782;-66
2023/06/06 12:49:46;;;;;;;1.60;1.50;;;26.30;46.60;;;;;;4982697;28;20283;-67
2023/06/06 12:52:15;;;;;;;3.78;2.10;;;26.30;46.70;;;;;;4987493;28;20238;-67
2023/06/06 12:54:42;;;;;;;2.28;2.08;;;26.30;46.30;;;;;;4987012;28;20204;-67
2023/06/06 12:57:13;;;;;;;1.42;1.40;;;26.20;46.10;;;;;;4970163;28;20212;-67
2023/06/06 12:59:44;;;;;;;1.83;1.60;;;26.20;46.40;;;;;;4981096;28;20843;-67